createdAt,value
2022-09-23T00:00:44.015Z,30.13
2022-09-23T00:01:44.078Z,30.13
2022-09-23T00:02:44.070Z,30.13
2022-09-23T00:03:43.994Z,30.13
2022-09-23T00:04:44.002Z,30.13
2022-09-23T00:05:43.974Z,30.13
2022-09-23T00:06:43.984Z,30.08
2022-09-23T00:07:43.974Z,30.67
2022-09-23T00:08:44.022Z,30.13
2022-09-23T00:09:43.963Z,30.13
2022-09-23T00:10:44.593Z,30.13
2022-09-23T00:11:43.882Z,30.13
2022-09-23T00:12:43.876Z,30.13
2022-09-23T00:13:43.852Z,30.13
2022-09-23T00:14:43.849Z,30.08
2022-09-23T00:15:43.832Z,30.13
2022-09-23T00:16:43.896Z,30.13
2022-09-23T00:17:43.813Z,30.13
2022-09-23T00:18:43.790Z,30.08
2022-09-23T00:19:43.790Z,30.13
2022-09-23T00:20:43.760Z,30.13
2022-09-23T00:21:43.751Z,30.13
2022-09-23T00:22:43.742Z,30.13
2022-09-23T00:23:43.741Z,30.24
2022-09-23T00:24:43.730Z,30.13
2022-09-23T00:25:43.731Z,30.19
2022-09-23T00:26:43.700Z,30.08
2022-09-23T00:27:43.723Z,30.13
2022-09-23T00:28:43.830Z,30.08
2022-09-23T00:29:43.700Z,30.13
2022-09-23T00:30:43.794Z,30.08
2022-09-23T00:31:43.699Z,30.13
2022-09-23T00:32:43.643Z,30.19
2022-09-23T00:33:43.648Z,30.13
2022-09-23T00:34:43.604Z,30.13
2022-09-23T00:35:43.577Z,30.19
2022-09-23T00:36:43.567Z,30.13
2022-09-23T00:37:43.555Z,30.13
2022-09-23T00:38:43.537Z,30.13
2022-09-23T00:39:43.538Z,30.19
2022-09-23T00:40:43.584Z,30.13
2022-09-23T00:41:43.496Z,30.13
2022-09-23T00:42:43.511Z,30.13
2022-09-23T00:43:43.466Z,30.13
2022-09-23T00:44:43.466Z,30.13
2022-09-23T00:45:43.494Z,30.13
2022-09-23T00:46:43.435Z,30.13
2022-09-23T00:47:43.425Z,30.13
2022-09-23T00:48:43.419Z,30.13
2022-09-23T00:49:43.435Z,30.13
2022-09-23T00:50:43.386Z,30.13
2022-09-23T00:51:43.379Z,30.13
2022-09-23T00:52:43.356Z,30.13
2022-09-23T00:53:43.337Z,30.13
2022-09-23T00:54:43.346Z,30.13
2022-09-23T00:55:43.315Z,30.13
2022-09-23T00:56:43.310Z,30.08
2022-09-23T00:57:43.305Z,30.13
2022-09-23T00:58:43.292Z,30.13
2022-09-23T00:59:43.324Z,30.13
2022-09-23T01:00:43.254Z,30.13
2022-09-23T01:01:43.263Z,30.13
2022-09-23T01:02:43.255Z,30.08
2022-09-23T01:03:43.214Z,30.13
2022-09-23T01:04:43.214Z,30.13
2022-09-23T01:05:43.193Z,30.13
2022-09-23T01:06:43.173Z,30.08
2022-09-23T01:07:43.162Z,30.13
2022-09-23T01:08:43.157Z,30.19
2022-09-23T01:09:43.146Z,30.13
2022-09-23T01:10:43.124Z,30.13
2022-09-23T01:11:43.112Z,30.13
2022-09-23T01:12:43.104Z,30.13
2022-09-23T01:13:43.083Z,30.13
2022-09-23T01:14:43.096Z,30.13
2022-09-23T01:15:43.063Z,30.13
2022-09-23T01:16:43.121Z,30.13
2022-09-23T01:17:43.033Z,30.08
2022-09-23T01:18:43.032Z,30.13
2022-09-23T01:19:43.022Z,30.13
2022-09-23T01:20:43.005Z,30.13
2022-09-23T01:21:42.992Z,30.13
2022-09-23T01:22:42.971Z,30.13
2022-09-23T01:23:42.960Z,30.13
2022-09-23T01:24:42.972Z,30.08
2022-09-23T01:25:42.931Z,30.08
2022-09-23T01:26:42.931Z,30.08
2022-09-23T01:27:42.921Z,30.08
2022-09-23T01:28:42.919Z,30.19
2022-09-23T01:29:42.899Z,30.13
2022-09-23T01:30:42.946Z,30.13
2022-09-23T01:31:42.862Z,30.13
2022-09-23T01:32:42.849Z,30.13
2022-09-23T01:33:42.830Z,30.13
2022-09-23T01:34:42.830Z,30.19
2022-09-23T01:35:42.809Z,30.13
2022-09-23T01:36:42.799Z,30.13
2022-09-23T01:37:42.779Z,30.19
2022-09-23T01:38:42.770Z,30.13
2022-09-23T01:39:42.763Z,30.13
2022-09-23T01:40:42.819Z,30.13
2022-09-23T01:41:42.741Z,30.13
2022-09-23T01:42:42.729Z,30.13
2022-09-23T01:43:42.709Z,30.13
2022-09-23T01:44:42.718Z,30.08
2022-09-23T01:45:42.708Z,30.08
2022-09-23T01:46:42.689Z,30.19
2022-09-23T01:47:42.648Z,30.08
2022-09-23T01:48:42.667Z,30.13
2022-09-23T01:49:42.678Z,30.13
2022-09-23T01:50:42.651Z,30.13
2022-09-23T01:51:42.598Z,30.13
2022-09-23T01:52:42.588Z,30.13
2022-09-23T01:53:42.567Z,30.13
2022-09-23T01:54:42.576Z,30.13
2022-09-23T01:55:42.546Z,30.13
2022-09-23T01:56:50.048Z,30.08
2022-09-23T01:57:50.025Z,30.08
2022-09-23T01:58:42.514Z,30.13
2022-09-23T01:59:42.514Z,30.13
2022-09-23T02:00:42.486Z,30.13
2022-09-23T02:01:42.537Z,30.08
2022-09-23T02:02:42.521Z,30.13
2022-09-23T02:03:42.445Z,30.13
2022-09-23T02:04:42.457Z,30.13
2022-09-23T02:05:42.422Z,30.08
2022-09-23T02:06:42.414Z,30.13
2022-09-23T02:07:42.403Z,30.13
2022-09-23T02:08:42.384Z,30.13
2022-09-23T02:09:42.382Z,30.08
2022-09-23T02:10:42.362Z,30.19
2022-09-23T02:11:42.351Z,30.67
2022-09-23T02:12:42.333Z,30.13
2022-09-23T02:13:42.314Z,30.13
2022-09-23T02:14:42.313Z,30.13
2022-09-23T02:15:42.292Z,30.13
2022-09-23T02:16:42.445Z,30.13
2022-09-23T02:17:42.262Z,30.13
2022-09-23T02:18:42.253Z,30.02
2022-09-23T02:19:42.250Z,30.13
2022-09-23T02:20:42.234Z,30.13
2022-09-23T02:21:42.221Z,30.19
2022-09-23T02:22:42.202Z,30.13
2022-09-23T02:23:42.181Z,30.08
2022-09-23T02:24:42.202Z,30.13
2022-09-23T02:25:42.181Z,30.08
2022-09-23T02:26:42.151Z,30.13
2022-09-23T02:27:42.141Z,30.13
2022-09-23T02:28:42.128Z,30.19
2022-09-23T02:29:42.121Z,30.13
2022-09-23T02:30:42.102Z,30.19
2022-09-23T02:31:42.139Z,30.13
2022-09-23T02:32:42.072Z,30.13
2022-09-23T02:33:42.059Z,30.08
2022-09-23T02:34:42.060Z,30.08
2022-09-23T02:35:42.029Z,30.13
2022-09-23T02:36:42.029Z,30.13
2022-09-23T02:37:42.008Z,30.13
2022-09-23T02:38:41.997Z,30.08
2022-09-23T02:39:42.019Z,30.08
2022-09-23T02:40:42.084Z,30.19
2022-09-23T02:41:41.962Z,30.08
2022-09-23T02:42:41.939Z,30.13
2022-09-23T02:43:41.927Z,30.13
2022-09-23T02:44:41.929Z,30.19
2022-09-23T02:45:41.974Z,30.13
2022-09-23T02:46:41.887Z,30.13
2022-09-23T02:47:41.876Z,30.08
2022-09-23T02:48:41.866Z,30.13
2022-09-23T02:49:41.859Z,30.13
2022-09-23T02:50:41.847Z,30.13
2022-09-23T02:51:41.838Z,30.13
2022-09-23T02:52:41.820Z,30.13
2022-09-23T02:53:41.797Z,30.08
2022-09-23T02:54:41.796Z,30.19
2022-09-23T02:55:41.774Z,30.08
2022-09-23T02:56:41.759Z,30.13
2022-09-23T02:57:41.745Z,30.13
2022-09-23T02:58:41.740Z,30.13
2022-09-23T02:59:41.726Z,30.13
2022-09-23T03:00:41.711Z,30.08
2022-09-23T03:01:41.763Z,30.13
2022-09-23T03:02:41.858Z,30.13
2022-09-23T03:03:41.666Z,30.13
2022-09-23T03:04:41.666Z,30.19
2022-09-23T03:05:41.652Z,30.13
2022-09-23T03:06:41.636Z,29.92
2022-09-23T03:07:41.614Z,30.13
2022-09-23T03:08:41.646Z,30.13
2022-09-23T03:09:41.593Z,30.13
2022-09-23T03:10:41.584Z,30.13
2022-09-23T03:11:41.563Z,30.19
2022-09-23T03:12:41.553Z,30.13
2022-09-23T03:13:41.535Z,30.13
2022-09-23T03:14:41.541Z,30.13
2022-09-23T03:15:41.512Z,30.13
2022-09-23T03:16:41.528Z,30.13
2022-09-23T03:17:41.513Z,30.13
2022-09-23T03:18:41.474Z,30.08
2022-09-23T03:19:41.472Z,31.04
2022-09-23T03:20:41.451Z,30.08
2022-09-23T03:21:41.434Z,30.13
2022-09-23T03:22:41.422Z,30.13
2022-09-23T03:23:41.412Z,30.13
2022-09-23T03:24:41.402Z,30.08
2022-09-23T03:25:41.392Z,30.13
2022-09-23T03:26:41.371Z,30.13
2022-09-23T03:27:41.350Z,30.13
2022-09-23T03:28:41.341Z,30.13
2022-09-23T03:29:41.328Z,30.08
2022-09-23T03:30:41.330Z,30.08
2022-09-23T03:31:41.353Z,30.13
2022-09-23T03:32:41.289Z,30.13
2022-09-23T03:33:41.290Z,30.08
2022-09-23T03:34:41.269Z,30.08
2022-09-23T03:35:41.260Z,30.13
2022-09-23T03:36:41.239Z,30.13
2022-09-23T03:37:41.228Z,30.13
2022-09-23T03:38:41.212Z,29.81
2022-09-23T03:39:41.205Z,30.08
2022-09-23T03:40:41.260Z,30.13
2022-09-23T03:41:41.168Z,30.13
2022-09-23T03:42:41.159Z,30.13
2022-09-23T03:43:41.146Z,30.13
2022-09-23T03:44:41.137Z,30.08
2022-09-23T03:45:41.161Z,30.08
2022-09-23T03:46:41.108Z,30.13
2022-09-23T03:47:41.095Z,30.13
2022-09-23T03:48:41.087Z,30.13
2022-09-23T03:49:41.067Z,30.08
2022-09-23T03:50:41.069Z,30.08
2022-09-23T03:51:44.491Z,30.13
2022-09-23T03:52:41.055Z,30.13
2022-09-23T03:53:41.020Z,30.13
2022-09-23T03:54:41.005Z,30.08
2022-09-23T03:55:40.995Z,30.13
2022-09-23T03:56:40.976Z,30.13
2022-09-23T03:57:40.974Z,30.13
2022-09-23T03:58:40.957Z,30.13
2022-09-23T03:59:40.943Z,30.13
2022-09-23T04:00:40.967Z,30.13
2022-09-23T04:01:40.993Z,30.13
2022-09-23T04:02:40.906Z,30.13
2022-09-23T04:03:40.896Z,30.13
2022-09-23T04:04:40.885Z,30.13
2022-09-23T04:05:40.875Z,30.08
2022-09-23T04:06:40.853Z,30.08
2022-09-23T04:07:40.843Z,30.13
2022-09-23T04:08:40.823Z,30.13
2022-09-23T04:09:40.813Z,30.13
2022-09-23T04:10:40.803Z,30.08
2022-09-23T04:11:40.783Z,30.13
2022-09-23T04:12:40.772Z,30.13
2022-09-23T04:13:40.762Z,30.13
2022-09-23T04:14:40.751Z,30.13
2022-09-23T04:15:40.742Z,30.08
2022-09-23T04:16:40.775Z,30.13
2022-09-23T04:17:40.712Z,30.08
2022-09-23T04:18:40.702Z,30.13
2022-09-23T04:19:40.680Z,30.08
2022-09-23T04:20:40.682Z,30.08
2022-09-23T04:21:40.651Z,30.13
2022-09-23T04:22:40.653Z,30.13
2022-09-23T04:23:40.629Z,30.13
2022-09-23T04:24:40.620Z,30.13
2022-09-23T04:25:40.610Z,30.13
2022-09-23T04:26:40.591Z,30.13
2022-09-23T04:27:40.578Z,30.02
2022-09-23T04:28:40.570Z,30.08
2022-09-23T04:29:40.586Z,30.13
2022-09-23T04:30:40.557Z,30.13
2022-09-23T04:31:40.619Z,28.84
2022-09-23T04:32:40.510Z,30.13
2022-09-23T04:33:40.499Z,30.13
2022-09-23T04:34:40.489Z,30.08
2022-09-23T04:35:40.623Z,30.08
2022-09-23T04:36:40.473Z,30.19
2022-09-23T04:37:40.440Z,30.13
2022-09-23T04:38:40.441Z,30.08
2022-09-23T04:39:40.418Z,30.13
2022-09-23T04:40:40.490Z,30.13
2022-09-23T04:41:40.407Z,30.13
2022-09-23T04:42:40.385Z,30.13
2022-09-23T04:43:40.379Z,30.08
2022-09-23T04:44:40.347Z,30.13
2022-09-23T04:45:40.364Z,30.13
2022-09-23T04:46:40.559Z,30.13
2022-09-23T04:47:40.316Z,30.19
2022-09-23T04:48:40.296Z,30.13
2022-09-23T04:49:40.295Z,30.13
2022-09-23T04:50:40.285Z,30.13
2022-09-23T04:51:40.276Z,30.13
2022-09-23T04:52:40.252Z,30.13
2022-09-23T04:53:40.244Z,30.13
2022-09-23T04:54:40.247Z,30.13
2022-09-23T04:55:40.225Z,30.13
2022-09-23T04:56:40.195Z,30.08
2022-09-23T04:57:40.184Z,30.13
2022-09-23T04:58:40.174Z,30.13
2022-09-23T04:59:40.164Z,30.13
2022-09-23T05:00:40.236Z,30.13
2022-09-23T05:01:40.333Z,30.08
2022-09-23T05:02:40.197Z,30.13
2022-09-23T05:03:40.113Z,30.13
2022-09-23T05:04:40.097Z,30.13
2022-09-23T05:05:40.092Z,30.13
2022-09-23T05:06:40.073Z,30.13
2022-09-23T05:07:40.059Z,30.08
2022-09-23T05:08:40.042Z,30.19
2022-09-23T05:09:40.031Z,30.13
2022-09-23T05:10:40.022Z,30.13
2022-09-23T05:11:40.011Z,30.13
2022-09-23T05:12:39.992Z,30.13
2022-09-23T05:13:39.990Z,30.13
2022-09-23T05:14:39.969Z,30.13
2022-09-23T05:15:39.968Z,30.13
2022-09-23T05:16:39.985Z,30.13
2022-09-23T05:17:39.931Z,30.13
2022-09-23T05:18:39.910Z,30.13
2022-09-23T05:19:39.923Z,30.13
2022-09-23T05:20:39.898Z,30.13
2022-09-23T05:21:39.880Z,30.13
2022-09-23T05:22:39.860Z,30.13
2022-09-23T05:23:39.859Z,30.24
2022-09-23T05:24:39.840Z,30.08
2022-09-23T05:25:39.839Z,30.08
2022-09-23T05:26:39.808Z,30.13
2022-09-23T05:27:39.800Z,30.08
2022-09-23T05:28:39.780Z,30.13
2022-09-23T05:29:39.777Z,30.13
2022-09-23T05:30:39.768Z,30.08
2022-09-23T05:31:39.784Z,30.13
2022-09-23T05:32:39.737Z,30.08
2022-09-23T05:33:39.728Z,30.13
2022-09-23T05:34:39.707Z,30.19
2022-09-23T05:35:39.707Z,30.13
2022-09-23T05:36:39.676Z,30.08
2022-09-23T05:37:39.681Z,30.13
2022-09-23T05:38:39.657Z,30.13
2022-09-23T05:39:39.638Z,30.13
2022-09-23T05:40:39.700Z,30.13
2022-09-23T05:41:39.617Z,30.19
2022-09-23T05:42:39.607Z,30.19
2022-09-23T05:43:39.595Z,30.08
2022-09-23T05:44:39.605Z,30.08
2022-09-23T05:45:39.577Z,30.13
2022-09-23T05:46:39.604Z,30.13
2022-09-23T05:47:39.548Z,30.24
2022-09-23T05:48:39.526Z,30.08
2022-09-23T05:49:58.487Z,30.13
2022-09-23T05:50:40.506Z,30.13
2022-09-23T05:51:39.484Z,30.13
2022-09-23T05:52:39.474Z,30.13
2022-09-23T05:53:39.584Z,30.19
2022-09-23T05:54:39.444Z,30.13
2022-09-23T05:55:39.453Z,30.13
2022-09-23T05:56:39.423Z,29.54
2022-09-23T05:57:39.411Z,30.08
2022-09-23T05:58:39.393Z,30.08
2022-09-23T05:59:39.383Z,30.08
2022-09-23T06:00:39.401Z,30.08
2022-09-23T06:01:39.459Z,30.13
2022-09-23T06:02:39.476Z,30.13
2022-09-23T06:03:39.342Z,30.13
2022-09-23T06:04:39.312Z,30.13
2022-09-23T06:05:39.323Z,30.08
2022-09-23T06:06:39.292Z,30.13
2022-09-23T06:07:39.288Z,30.13
2022-09-23T06:08:39.367Z,30.13
2022-09-23T06:09:39.269Z,30.13
2022-09-23T06:10:39.243Z,30.13
2022-09-23T06:11:39.232Z,30.19
2022-09-23T06:12:39.211Z,30.13
2022-09-23T06:13:39.204Z,30.13
2022-09-23T06:14:39.201Z,30.13
2022-09-23T06:15:39.230Z,30.13
2022-09-23T06:16:39.159Z,29.49
2022-09-23T06:17:39.157Z,30.08
2022-09-23T06:18:39.141Z,30.13
2022-09-23T06:19:39.139Z,30.13
2022-09-23T06:20:39.109Z,30.08
2022-09-23T06:21:39.099Z,30.08
2022-09-23T06:22:40.239Z,30.13
2022-09-23T06:23:41.550Z,30.13
2022-09-23T06:24:39.079Z,30.13
2022-09-23T06:25:39.058Z,30.13
2022-09-23T06:26:39.029Z,30.13
2022-09-23T06:27:39.029Z,30.29
2022-09-23T06:28:39.008Z,30.13
2022-09-23T06:29:39.000Z,30.19
2022-09-23T06:30:38.990Z,30.08
2022-09-23T06:31:39.021Z,30.13
2022-09-23T06:32:38.961Z,30.13
2022-09-23T06:33:38.947Z,30.13
2022-09-23T06:34:49.666Z,30.19
2022-09-23T06:35:40.417Z,30.19
2022-09-23T06:36:43.782Z,30.13
2022-09-23T06:37:39.895Z,30.13
2022-09-23T06:38:38.878Z,30.13
2022-09-23T06:39:38.869Z,29.54
2022-09-23T06:40:38.935Z,29.54
2022-09-23T06:41:38.858Z,30.13
2022-09-23T06:42:38.827Z,30.13
2022-09-23T06:43:38.816Z,30.08
2022-09-23T06:44:38.796Z,29.49
2022-09-23T06:45:38.797Z,30.13
2022-09-23T06:46:38.975Z,29.54
2022-09-23T06:47:38.766Z,29.49
2022-09-23T06:48:41.731Z,30.13
2022-09-23T06:49:39.738Z,30.08
2022-09-23T06:50:38.726Z,30.13
2022-09-23T06:51:38.716Z,30.19
2022-09-23T06:52:38.695Z,29.49
2022-09-23T06:53:38.676Z,30.19
2022-09-23T06:54:38.695Z,29.59
2022-09-23T06:55:38.679Z,30.13
2022-09-23T06:56:39.716Z,30.13
2022-09-23T06:57:38.636Z,29.54
2022-09-23T06:58:38.615Z,30.13
2022-09-23T06:59:38.617Z,30.02
2022-09-23T07:00:38.605Z,30.13
2022-09-23T07:01:38.737Z,29.54
2022-09-23T07:02:38.647Z,29.65
2022-09-23T07:03:38.566Z,29.54
2022-09-23T07:04:38.549Z,30.13
2022-09-23T07:05:38.554Z,30.13
2022-09-23T07:06:38.548Z,29.54
2022-09-23T07:07:38.495Z,29.54
2022-09-23T07:08:38.485Z,30.13
2022-09-23T07:09:38.474Z,29.54
2022-09-23T07:10:38.623Z,29.54
2022-09-23T07:11:38.457Z,29.65
2022-09-23T07:12:38.432Z,29.54
2022-09-23T07:13:38.425Z,30.13
2022-09-23T07:14:38.455Z,30.13
2022-09-23T07:15:38.614Z,30.13
2022-09-23T07:16:38.405Z,29.59
2022-09-23T07:17:38.385Z,29.59
2022-09-23T07:18:38.406Z,29.54
2022-09-23T07:19:38.349Z,29.54
2022-09-23T07:20:38.343Z,29.54
2022-09-23T07:21:38.345Z,29.54
2022-09-23T07:22:38.364Z,29.59
2022-09-23T07:23:38.305Z,30.08
2022-09-23T07:24:38.277Z,30.13
2022-09-23T07:25:38.284Z,29.54
2022-09-23T07:26:42.253Z,29.54
2022-09-23T07:27:39.244Z,29.49
2022-09-23T07:28:38.293Z,29.54
2022-09-23T07:29:47.299Z,29.49
2022-09-23T07:30:41.184Z,29.54
2022-09-23T07:31:40.040Z,30.13
2022-09-23T07:32:47.685Z,30.13
2022-09-23T07:33:39.217Z,30.45
2022-09-23T07:34:38.143Z,29.65
2022-09-23T07:35:38.144Z,30.13
2022-09-23T07:36:38.164Z,29.54
2022-09-23T07:37:38.143Z,29.54
2022-09-23T07:38:42.778Z,29.54
2022-09-23T07:39:39.108Z,30.13
2022-09-23T07:40:38.246Z,29.54
2022-09-23T07:41:38.058Z,29.54
2022-09-23T07:42:38.044Z,29.59
2022-09-23T07:43:38.036Z,29.59
2022-09-23T07:44:38.013Z,29.59
2022-09-23T07:45:38.013Z,29.54
2022-09-23T07:46:38.031Z,29.59
2022-09-23T07:47:37.993Z,29.54
2022-09-23T07:48:37.961Z,29.54
2022-09-23T07:49:37.953Z,29.59
2022-09-23T07:50:37.948Z,29.54
2022-09-23T07:51:37.924Z,30.13
2022-09-23T07:52:37.902Z,30.13
2022-09-23T07:53:37.904Z,29.54
2022-09-23T07:54:37.882Z,29.54
2022-09-23T07:55:37.882Z,29.54
2022-09-23T07:56:37.856Z,29.06
2022-09-23T07:57:37.843Z,29.54
2022-09-23T07:58:37.846Z,29.54
2022-09-23T07:59:37.823Z,27.61
2022-09-23T08:00:37.803Z,29.54
2022-09-23T08:01:37.806Z,29.49
2022-09-23T08:02:37.796Z,29.59
2022-09-23T08:03:37.763Z,29.59
2022-09-23T08:04:37.768Z,29.54
2022-09-23T08:05:37.732Z,29.54
2022-09-23T08:06:37.712Z,29.49
2022-09-23T08:07:37.702Z,29.54
2022-09-23T08:08:37.696Z,30.19
2022-09-23T08:09:37.694Z,29.54
2022-09-23T08:10:37.663Z,29.54
2022-09-23T08:11:37.661Z,29.49
2022-09-23T08:12:37.642Z,29.59
2022-09-23T08:13:37.639Z,29.54
2022-09-23T08:14:37.621Z,29.54
2022-09-23T08:15:37.721Z,29.54
2022-09-23T08:16:37.591Z,29.54
2022-09-23T08:17:37.575Z,29.54
2022-09-23T08:18:37.561Z,29.54
2022-09-23T08:19:37.564Z,29.54
2022-09-23T08:20:37.556Z,29.54
2022-09-23T08:21:37.586Z,29.54
2022-09-23T08:22:37.529Z,29.54
2022-09-23T08:23:37.503Z,30.13
2022-09-23T08:24:37.491Z,29.59
2022-09-23T08:25:37.480Z,29.49
2022-09-23T08:26:37.472Z,30.13
2022-09-23T08:27:37.444Z,29.59
2022-09-23T08:28:37.433Z,29.54
2022-09-23T08:29:37.431Z,29.59
2022-09-23T08:30:37.437Z,29.59
2022-09-23T08:31:37.391Z,29.59
2022-09-23T08:32:37.388Z,30.13
2022-09-23T08:33:37.377Z,29.54
2022-09-23T08:34:37.361Z,29.54
2022-09-23T08:35:37.343Z,29.59
2022-09-23T08:36:37.321Z,29.54
2022-09-23T08:37:37.311Z,29.59
2022-09-23T08:38:37.320Z,29.54
2022-09-23T08:39:37.301Z,29.59
2022-09-23T08:40:37.314Z,29.54
2022-09-23T08:41:37.261Z,29.54
2022-09-23T08:42:37.253Z,29.59
2022-09-23T08:43:37.246Z,30.19
2022-09-23T08:44:37.233Z,29.54
2022-09-23T08:45:37.213Z,29.59
2022-09-23T08:46:37.201Z,29.54
2022-09-23T08:47:37.183Z,29.54
2022-09-23T08:48:37.172Z,29.54
2022-09-23T08:49:37.171Z,29.54
2022-09-23T08:50:37.143Z,30.13
2022-09-23T08:51:37.129Z,29.59
2022-09-23T08:52:37.111Z,29.54
2022-09-23T08:53:37.101Z,29.54
2022-09-23T08:54:37.092Z,29.54
2022-09-23T08:55:37.081Z,29.54
2022-09-23T08:56:37.063Z,29.54
2022-09-23T08:57:37.050Z,29.54
2022-09-23T08:58:37.053Z,29.59
2022-09-23T08:59:37.031Z,29.54
2022-09-23T09:00:37.020Z,29.59
2022-09-23T09:01:37.039Z,29.59
2022-09-23T09:02:37.002Z,29.59
2022-09-23T09:03:36.980Z,29.54
2022-09-23T09:04:36.962Z,29.54
2022-09-23T09:05:36.951Z,29.38
2022-09-23T09:06:51.800Z,29.43
2022-09-23T09:07:38.422Z,29.54
2022-09-23T09:08:36.915Z,30.13
2022-09-23T09:09:36.893Z,29.54
2022-09-23T09:10:36.900Z,29.54
2022-09-23T09:11:36.861Z,29.54
2022-09-23T09:12:36.852Z,29.54
2022-09-23T09:13:36.850Z,29.54
2022-09-23T09:14:36.832Z,29.59
2022-09-23T09:15:36.844Z,29.65
2022-09-23T09:16:58.480Z,30.13
2022-09-23T09:17:37.798Z,29.54
2022-09-23T09:18:36.781Z,29.54
2022-09-23T09:19:36.762Z,29.59
2022-09-23T09:20:36.771Z,29.59
2022-09-23T09:21:36.742Z,29.54
2022-09-23T09:23:36.714Z,30.13
2022-09-23T09:24:36.702Z,29.59
2022-09-23T09:25:36.708Z,29.65
2022-09-23T09:26:36.682Z,29.59
2022-09-23T09:27:36.663Z,29.54
2022-09-23T09:28:36.654Z,29.59
2022-09-23T09:29:36.786Z,29.54
2022-09-23T09:30:36.698Z,29.54
2022-09-23T09:31:36.640Z,29.59
2022-09-23T09:32:36.592Z,29.54
2022-09-23T09:33:36.585Z,29.54
2022-09-23T09:34:36.570Z,29.59
2022-09-23T09:35:36.582Z,29.54
2022-09-23T09:36:36.550Z,29.54
2022-09-23T09:37:36.528Z,29.59
2022-09-23T09:38:36.523Z,29.54
2022-09-23T09:39:36.502Z,29.59
2022-09-23T09:40:36.542Z,29.59
2022-09-23T09:41:36.490Z,29.54
2022-09-23T09:42:36.463Z,29.54
2022-09-23T09:43:38.016Z,29.54
2022-09-23T09:44:37.205Z,29.54
2022-09-23T09:45:36.450Z,29.54
2022-09-23T09:46:36.453Z,29.59
2022-09-23T09:47:36.394Z,29.59
2022-09-23T09:48:36.414Z,29.59
2022-09-23T09:49:40.353Z,29.54
2022-09-23T09:50:36.372Z,29.54
2022-09-23T09:51:36.342Z,29.54
2022-09-23T09:52:37.994Z,29.70
2022-09-23T09:53:36.259Z,29.54
2022-09-23T09:54:36.258Z,29.54
2022-09-23T09:55:36.249Z,29.59
2022-09-23T09:56:36.323Z,29.59
2022-09-23T09:57:36.350Z,29.59
2022-09-23T09:58:36.207Z,29.59
2022-09-23T09:59:36.187Z,29.54
2022-09-23T10:00:36.186Z,29.54
2022-09-23T10:01:36.211Z,29.59
2022-09-23T10:02:36.195Z,29.54
2022-09-23T10:03:36.132Z,29.54
2022-09-23T10:04:36.157Z,29.54
2022-09-23T10:05:36.125Z,29.59
2022-09-23T10:06:36.097Z,29.54
2022-09-23T10:07:36.084Z,29.59
2022-09-23T10:08:36.064Z,29.49
2022-09-23T10:09:36.055Z,29.59
2022-09-23T10:10:36.066Z,29.59
2022-09-23T10:11:36.030Z,29.54
2022-09-23T10:12:36.014Z,29.54
2022-09-23T10:13:36.016Z,29.54
2022-09-23T10:14:35.983Z,29.59
2022-09-23T10:15:35.982Z,30.13
2022-09-23T10:16:36.036Z,29.54
2022-09-23T10:17:35.944Z,29.54
2022-09-23T10:18:35.944Z,29.49
2022-09-23T10:19:35.913Z,29.54
2022-09-23T10:20:35.924Z,29.54
2022-09-23T10:21:35.902Z,29.65
2022-09-23T10:22:35.882Z,29.54
2022-09-23T10:23:35.864Z,29.49
2022-09-23T10:24:35.863Z,29.65
2022-09-23T10:25:35.854Z,29.54
2022-09-23T10:26:35.834Z,29.54
2022-09-23T10:27:35.849Z,29.54
2022-09-23T10:28:35.804Z,29.54
2022-09-23T10:29:35.792Z,29.54
2022-09-23T10:30:35.814Z,29.54
2022-09-23T10:31:35.765Z,29.59
2022-09-23T10:32:35.774Z,29.54
2022-09-23T10:33:35.737Z,29.54
2022-09-23T10:34:35.747Z,29.54
2022-09-23T10:35:35.716Z,29.54
2022-09-23T10:36:35.706Z,29.54
2022-09-23T10:37:35.695Z,29.54
2022-09-23T10:38:35.677Z,29.54
2022-09-23T10:39:35.678Z,29.59
2022-09-23T10:40:35.709Z,29.59
2022-09-23T10:41:35.638Z,29.54
2022-09-23T10:42:35.639Z,29.54
2022-09-23T10:43:35.611Z,29.59
2022-09-23T10:44:35.600Z,29.59
2022-09-23T10:45:38.541Z,29.59
2022-09-23T10:46:36.635Z,29.59
2022-09-23T10:47:35.574Z,29.59
2022-09-23T10:48:35.552Z,29.54
2022-09-23T10:49:35.533Z,29.59
2022-09-23T10:50:35.539Z,29.54
2022-09-23T10:51:35.514Z,29.59
2022-09-23T10:52:35.505Z,29.54
2022-09-23T10:53:35.486Z,29.59
2022-09-23T10:54:35.477Z,29.54
2022-09-23T10:55:35.466Z,29.59
2022-09-23T10:56:35.453Z,29.59
2022-09-23T10:57:35.436Z,29.59
2022-09-23T10:58:35.428Z,29.86
2022-09-23T10:59:35.410Z,29.65
2022-09-23T11:00:35.408Z,29.54
2022-09-23T11:01:35.436Z,29.54
2022-09-23T11:02:35.391Z,29.59
2022-09-23T11:03:35.363Z,29.49
2022-09-23T11:04:35.431Z,29.54
2022-09-23T11:05:35.341Z,29.54
2022-09-23T11:06:35.322Z,29.59
2022-09-23T11:07:37.188Z,29.59
2022-09-23T11:08:35.302Z,29.22
2022-09-23T11:09:35.283Z,29.54
2022-09-23T11:10:46.098Z,29.59
2022-09-23T11:11:36.254Z,29.54
2022-09-23T11:12:35.247Z,29.43
2022-09-23T11:13:35.233Z,29.54
2022-09-23T11:14:35.230Z,29.54
2022-09-23T11:15:35.224Z,29.59
2022-09-23T11:16:35.242Z,29.17
2022-09-23T11:17:35.181Z,29.54
2022-09-23T11:18:35.167Z,29.59
2022-09-23T11:19:35.165Z,29.54
2022-09-23T11:20:35.148Z,29.54
2022-09-23T11:21:35.130Z,29.54
2022-09-23T11:22:35.122Z,29.54
2022-09-23T11:23:35.108Z,29.54
2022-09-23T11:24:35.101Z,29.54
2022-09-23T11:25:35.087Z,29.59
2022-09-23T11:26:35.071Z,29.54
2022-09-23T11:27:35.058Z,29.59
2022-09-23T11:28:35.041Z,29.54
2022-09-23T11:29:35.034Z,29.59
2022-09-23T11:30:35.052Z,29.54
2022-09-23T11:31:35.107Z,29.59
2022-09-23T11:32:34.992Z,29.54
2022-09-23T11:33:35.002Z,29.59
2022-09-23T11:34:34.972Z,29.59
2022-09-23T11:35:34.952Z,29.54
2022-09-23T11:36:34.953Z,29.54
2022-09-23T11:37:34.924Z,29.54
2022-09-23T11:38:34.922Z,29.54
2022-09-23T11:39:34.927Z,29.54
2022-09-23T11:40:34.962Z,29.54
2022-09-23T11:41:34.872Z,29.54
2022-09-23T11:42:34.864Z,29.54
2022-09-23T11:43:34.846Z,29.54
2022-09-23T11:44:34.846Z,29.54
2022-09-23T11:45:34.864Z,29.54
2022-09-23T11:46:34.812Z,29.54
2022-09-23T11:47:39.468Z,29.59
2022-09-23T11:48:35.784Z,29.59
2022-09-23T11:49:34.768Z,29.54
2022-09-23T11:50:34.777Z,29.54
2022-09-23T11:51:34.736Z,29.59
2022-09-23T11:52:34.740Z,29.54
2022-09-23T11:53:34.728Z,29.59
2022-09-23T11:54:34.712Z,29.11
2022-09-23T11:55:34.728Z,29.59
2022-09-23T11:56:36.596Z,29.54
2022-09-23T11:57:44.639Z,29.59
2022-09-23T11:58:35.697Z,29.54
2022-09-23T11:59:39.920Z,29.59
2022-09-23T12:00:35.640Z,29.54
2022-09-23T12:01:37.665Z,29.49
2022-09-23T12:02:34.682Z,29.59
2022-09-23T12:03:43.091Z,29.59
2022-09-23T12:04:36.393Z,29.17
2022-09-23T12:05:34.729Z,29.59
2022-09-23T12:06:34.594Z,29.54
2022-09-23T12:07:34.534Z,29.54
2022-09-23T12:08:34.530Z,29.54
2022-09-23T12:09:57.362Z,29.54
2022-09-23T12:10:35.493Z,29.54
2022-09-23T12:11:34.504Z,29.59
2022-09-23T12:12:34.481Z,29.54
2022-09-23T12:13:34.471Z,29.59
2022-09-23T12:14:34.475Z,29.33
2022-09-23T12:15:34.447Z,29.54
2022-09-23T12:16:34.499Z,29.54
2022-09-23T12:17:34.424Z,29.54
2022-09-23T12:18:34.471Z,29.22
2022-09-23T12:19:35.489Z,29.54
2022-09-23T12:20:34.373Z,29.59
2022-09-23T12:21:51.355Z,29.17
2022-09-23T12:22:35.358Z,29.59
2022-09-23T12:23:34.334Z,29.54
2022-09-23T12:24:34.338Z,29.54
2022-09-23T12:25:34.306Z,29.54
2022-09-23T12:26:34.320Z,29.54
2022-09-23T12:27:34.316Z,29.54
2022-09-23T12:28:34.353Z,29.54
2022-09-23T12:29:34.286Z,29.54
2022-09-23T12:30:34.442Z,29.54
2022-09-23T12:31:37.551Z,29.54
2022-09-23T12:32:35.215Z,29.17
2022-09-23T12:33:34.228Z,29.59
2022-09-23T12:34:34.216Z,29.22
2022-09-23T12:35:34.174Z,29.59
2022-09-23T12:36:34.163Z,29.54
2022-09-23T12:37:34.157Z,29.11
2022-09-23T12:38:34.138Z,29.54
2022-09-23T12:39:34.137Z,29.22
2022-09-23T12:40:34.175Z,29.17
2022-09-23T12:41:34.119Z,29.59
2022-09-23T12:42:34.129Z,29.17
2022-09-23T12:43:34.080Z,29.54
2022-09-23T12:44:34.129Z,29.54
2022-09-23T12:45:34.126Z,29.54
2022-09-23T12:46:34.050Z,29.38
2022-09-23T12:47:34.019Z,29.59
2022-09-23T12:48:34.010Z,29.54
2022-09-23T12:49:34.076Z,29.54
2022-09-23T12:50:34.032Z,29.59
2022-09-23T12:51:33.961Z,29.54
2022-09-23T12:52:34.001Z,29.59
2022-09-23T12:53:33.953Z,29.17